Time;durP1;ratioP1;P1;durP2;ratioP2;P2;SDS_P1;SDS_P2;PMS_P1;PMS_P2;Temp;Humidity;BMP_temperature;BMP_pressure;BME280_temperature;BME280_humidity;BME280_pressure;Samples;Min_cycle;Max_cycle;Signal;HPM_P1;HPM_P2
2023/05/25 00:02:05;;;;;;;1.90;0.40;;;9.40;99.90;;;;;;5005570;28;20034;-79
2023/05/25 00:04:33;;;;;;;1.80;0.40;;;9.40;99.90;;;;;;5010046;28;20048;-81
2023/05/25 00:06:59;;;;;;;1.75;0.50;;;9.40;99.90;;;;;;4994042;28;20249;-81
2023/05/25 00:09:25;;;;;;;1.58;0.40;;;9.40;99.90;;;;;;5005063;28;20112;-80
2023/05/25 00:11:51;;;;;;;1.30;0.30;;;9.40;99.90;;;;;;4994319;28;20116;-79
2023/05/25 00:14:17;;;;;;;3.08;0.43;;;9.30;99.90;;;;;;5008862;28;20029;-81
2023/05/25 00:16:44;;;;;;;2.95;0.45;;;9.30;99.90;;;;;;5023439;28;21047;-80
2023/05/25 00:19:10;;;;;;;1.40;0.40;;;9.30;99.90;;;;;;4993597;28;20042;-81
2023/05/25 00:21:38;;;;;;;2.22;0.40;;;9.20;99.90;;;;;;5004265;28;20389;-80
2023/05/25 00:24:05;;;;;;;3.25;0.47;;;9.20;99.90;;;;;;5005900;28;20034;-81
2023/05/25 00:26:30;;;;;;;3.05;0.43;;;9.20;99.90;;;;;;5024245;28;20034;-80
2023/05/25 00:28:59;;;;;;;2.85;0.70;;;9.20;99.90;;;;;;5007646;28;20038;-81
2023/05/25 00:31:26;;;;;;;9.48;0.55;;;9.10;99.90;;;;;;5009782;28;20042;-80
2023/05/25 00:33:51;;;;;;;3.03;0.60;;;9.10;99.90;;;;;;5009989;28;20026;-80
2023/05/25 00:36:17;;;;;;;3.17;0.40;;;9.10;99.90;;;;;;5009379;28;20481;-81
2023/05/25 00:38:43;;;;;;;2.20;0.50;;;9.10;99.90;;;;;;5006819;28;20065;-81
2023/05/25 00:41:08;;;;;;;2.10;0.50;;;9.00;99.90;;;;;;4993568;28;20080;-80
2023/05/25 00:43:34;;;;;;;2.50;0.55;;;8.90;99.90;;;;;;5010251;28;20081;-81
2023/05/25 00:46:01;;;;;;;1.65;0.50;;;8.90;99.90;;;;;;5009390;28;20463;-81
2023/05/25 00:48:27;;;;;;;2.25;0.40;;;8.80;99.90;;;;;;5007759;28;20029;-80
2023/05/25 00:51:13;;;;;;;1.98;0.40;;;8.80;99.90;;;;;;4992875;28;20045;-81
2023/05/25 00:53:40;;;;;;;2.97;0.60;;;8.80;99.90;;;;;;5004939;28;20034;-80
2023/05/25 00:56:16;;;;;;;1.15;0.47;;;8.80;99.90;;;;;;4993419;28;20057;-81
2023/05/25 00:58:44;;;;;;;3.53;0.50;;;8.70;99.90;;;;;;5009747;28;20045;-81
2023/05/25 01:01:14;;;;;;;1.90;0.47;;;8.60;99.90;;;;;;4991598;28;20505;-81
2023/05/25 01:03:45;;;;;;;1.73;0.50;;;8.50;99.90;;;;;;4988809;28;20409;-81
2023/05/25 01:06:14;;;;;;;2.20;0.60;;;8.50;99.90;;;;;;5008249;28;20155;-80
2023/05/25 01:08:43;;;;;;;2.28;0.47;;;8.50;99.90;;;;;;4992638;28;20022;-80
2023/05/25 01:11:11;;;;;;;2.65;0.40;;;8.50;99.90;;;;;;5005683;28;20173;-80
2023/05/25 01:13:37;;;;;;;2.15;0.50;;;8.50;99.90;;;;;;5008860;28;20022;-81
2023/05/25 01:16:08;;;;;;;1.38;0.47;;;8.50;99.90;;;;;;5008404;28;20033;-81
2023/05/25 01:18:33;;;;;;;1.52;0.52;;;8.30;99.90;;;;;;5014768;28;20490;-81
2023/05/25 01:21:13;;;;;;;4.15;0.70;;;8.30;99.90;;;;;;4991989;28;20172;-80
2023/05/25 01:23:51;;;;;;;4.28;0.75;;;8.30;99.90;;;;;;5015198;28;20084;-80
2023/05/25 01:26:18;;;;;;;2.20;0.75;;;8.30;99.90;;;;;;4993133;28;20030;-77
2023/05/25 01:28:50;;;;;;;3.95;0.82;;;8.30;99.90;;;;;;5003391;28;20033;-80
2023/05/25 01:31:21;;;;;;;3.42;0.60;;;8.20;99.90;;;;;;5006360;28;20030;-80
2023/05/25 01:33:49;;;;;;;4.13;0.77;;;8.10;99.90;;;;;;5016203;28;20030;-78
2023/05/25 01:36:15;;;;;;;2.85;0.63;;;8.20;99.90;;;;;;4992225;28;20030;-80
2023/05/25 01:38:41;;;;;;;3.33;0.70;;;8.20;99.90;;;;;;5023294;28;20046;-81
2023/05/25 01:41:06;;;;;;;2.83;0.60;;;8.20;99.90;;;;;;4992588;28;20160;-81
2023/05/25 01:43:32;;;;;;;4.45;0.70;;;8.20;99.90;;;;;;4991535;28;20054;-80
2023/05/25 01:46:18;;;;;;;2.65;0.90;;;8.20;99.90;;;;;;4992614;28;20044;-82
2023/05/25 01:49:01;;;;;;;4.38;0.90;;;8.20;99.90;;;;;;5004201;28;20032;-81
2023/05/25 01:51:37;;;;;;;4.38;1.02;;;8.20;99.90;;;;;;5002297;28;20076;-80
2023/05/25 01:54:18;;;;;;;2.45;0.80;;;8.10;99.90;;;;;;4991274;28;20471;-81
2023/05/25 01:56:45;;;;;;;5.00;0.70;;;8.10;99.90;;;;;;5002694;28;20038;-77
2023/05/25 01:59:13;;;;;;;1.90;0.70;;;8.10;99.90;;;;;;5004914;28;20035;-80
2023/05/25 02:01:42;;;;;;;1.80;0.60;;;8.10;99.90;;;;;;5009328;28;20510;-81
2023/05/25 02:04:08;;;;;;;2.10;0.88;;;8.00;99.90;;;;;;4989636;28;20033;-81
2023/05/25 02:06:37;;;;;;;3.85;1.20;;;8.10;99.90;;;;;;4990544;28;20125;-80
2023/05/25 02:09:05;;;;;;;2.80;0.95;;;8.00;99.90;;;;;;4987977;28;20026;-81
2023/05/25 02:11:31;;;;;;;3.80;1.33;;;8.00;99.90;;;;;;4990682;28;20564;-79
2023/05/25 02:13:57;;;;;;;3.03;0.90;;;8.00;99.90;;;;;;4993043;28;20463;-81
2023/05/25 02:16:22;;;;;;;4.30;1.27;;;8.00;99.90;;;;;;5006682;28;20080;-81
2023/05/25 02:18:50;;;;;;;3.15;1.33;;;7.90;99.90;;;;;;5019704;28;20128;-78
2023/05/25 02:21:16;;;;;;;2.70;1.10;;;7.80;99.90;;;;;;5003947;28;20129;-80
2023/05/25 02:23:42;;;;;;;2.45;0.90;;;7.90;99.90;;;;;;4998206;28;20029;-81
2023/05/25 02:26:08;;;;;;;3.45;1.00;;;7.80;99.90;;;;;;4988849;28;20028;-81
2023/05/25 02:28:33;;;;;;;3.45;1.02;;;7.80;99.90;;;;;;5004985;28;20552;-78
2023/05/25 02:30:59;;;;;;;2.40;0.90;;;7.70;99.90;;;;;;5008792;28;20068;-81
2023/05/25 02:33:25;;;;;;;5.65;1.20;;;7.70;99.90;;;;;;5007272;28;20033;-79
2023/05/25 02:35:50;;;;;;;2.55;1.00;;;7.70;99.90;;;;;;5015862;28;20026;-80
2023/05/25 02:38:16;;;;;;;4.57;0.80;;;7.60;99.90;;;;;;5003971;28;20124;-80
2023/05/25 02:40:42;;;;;;;3.15;1.10;;;7.60;99.90;;;;;;4992121;28;20030;-79
2023/05/25 02:43:07;;;;;;;3.30;0.70;;;7.50;99.90;;;;;;5021390;28;20119;-80
2023/05/25 02:45:33;;;;;;;3.10;0.75;;;7.60;99.90;;;;;;4989502;28;20734;-78
2023/05/25 02:47:59;;;;;;;2.33;0.75;;;7.60;99.90;;;;;;4990175;28;20053;-81
2023/05/25 02:50:25;;;;;;;3.15;0.80;;;7.50;99.90;;;;;;5020527;28;20022;-81
2023/05/25 02:52:53;;;;;;;2.25;0.60;;;7.50;99.90;;;;;;4991417;28;20030;-77
2023/05/25 02:55:19;;;;;;;2.65;1.10;;;7.50;99.90;;;;;;5007621;28;20023;-80
2023/05/25 02:57:45;;;;;;;4.18;1.00;;;7.40;99.90;;;;;;4990305;28;20156;-80
2023/05/25 03:00:19;;;;;;;2.53;0.88;;;7.40;99.90;;;;;;4987974;28;20100;-78
2023/05/25 03:02:47;;;;;;;3.03;0.82;;;7.40;99.90;;;;;;4997478;28;20022;-78
2023/05/25 03:05:16;;;;;;;2.47;0.70;;;7.40;99.90;;;;;;4987782;28;20099;-81
2023/05/25 03:07:43;;;;;;;3.75;0.57;;;7.30;99.90;;;;;;4991065;28;20557;-78
2023/05/25 03:10:10;;;;;;;2.17;0.65;;;7.50;99.90;;;;;;5006701;28;20124;-78
2023/05/25 03:12:36;;;;;;;4.10;0.60;;;7.50;99.90;;;;;;4991056;28;20022;-81
2023/05/25 03:15:02;;;;;;;2.40;0.60;;;7.50;99.90;;;;;;5007996;28;20461;-80
2023/05/25 03:17:28;;;;;;;3.08;0.70;;;7.40;99.90;;;;;;5014968;28;20045;-80
2023/05/25 03:19:53;;;;;;;2.55;0.70;;;7.40;99.90;;;;;;4998948;28;20478;-80
2023/05/25 03:22:19;;;;;;;2.60;0.70;;;7.40;99.90;;;;;;4991445;28;20099;-81
2023/05/25 03:24:45;;;;;;;2.15;0.70;;;7.40;99.90;;;;;;5001307;28;20034;-79
2023/05/25 03:27:11;;;;;;;3.03;0.68;;;7.30;99.90;;;;;;4991149;28;20120;-81
2023/05/25 03:29:37;;;;;;;3.60;0.70;;;7.30;99.90;;;;;;4989770;28;20022;-79
2023/05/25 03:32:03;;;;;;;2.03;0.68;;;7.30;99.90;;;;;;5014001;28;20926;-81
2023/05/25 03:34:33;;;;;;;3.28;0.70;;;7.40;99.90;;;;;;4987648;28;20025;-81
2023/05/25 03:36:59;;;;;;;2.35;0.57;;;7.40;99.90;;;;;;4990504;28;20038;-81
2023/05/25 03:39:25;;;;;;;2.70;0.80;;;7.30;99.90;;;;;;5012864;28;20037;-81
2023/05/25 03:41:52;;;;;;;2.22;0.60;;;7.40;99.90;;;;;;5003858;28;20049;-80
2023/05/25 03:44:18;;;;;;;1.80;0.63;;;7.40;99.90;;;;;;4991078;28;20050;-81
2023/05/25 03:46:44;;;;;;;1.98;0.60;;;7.40;99.90;;;;;;5007053;28;20474;-80
2023/05/25 03:49:12;;;;;;;2.40;0.50;;;7.40;99.90;;;;;;5006800;28;20540;-80
2023/05/25 03:51:39;;;;;;;1.92;0.60;;;7.40;99.90;;;;;;5006423;28;20104;-80
2023/05/25 03:54:06;;;;;;;2.92;0.82;;;7.40;99.90;;;;;;5002945;28;20461;-80
2023/05/25 03:56:31;;;;;;;2.78;0.55;;;7.40;99.90;;;;;;5005470;28;20061;-80
2023/05/25 03:58:59;;;;;;;3.33;0.68;;;7.50;99.90;;;;;;5003461;28;20046;-80
2023/05/25 04:01:25;;;;;;;2.50;0.80;;;7.40;99.90;;;;;;5003062;28;20458;-79
2023/05/25 04:03:54;;;;;;;2.53;0.70;;;7.40;99.90;;;;;;4988125;28;20030;-79
2023/05/25 04:06:20;;;;;;;3.47;0.70;;;7.40;99.90;;;;;;4990296;28;20018;-80
2023/05/25 04:08:48;;;;;;;2.78;0.60;;;7.40;99.90;;;;;;5003576;28;20038;-81
2023/05/25 04:11:13;;;;;;;2.45;0.60;;;7.40;99.90;;;;;;4986475;28;20079;-79
2023/05/25 04:13:39;;;;;;;2.22;0.80;;;7.40;99.90;;;;;;5001372;28;20030;-78
2023/05/25 04:16:06;;;;;;;3.03;0.60;;;7.40;99.90;;;;;;4989952;28;20030;-80
2023/05/25 04:18:32;;;;;;;2.08;0.85;;;7.50;99.90;;;;;;4986628;28;20050;-79
2023/05/25 04:20:58;;;;;;;3.40;0.70;;;7.50;99.90;;;;;;5018152;28;20521;-78
2023/05/25 04:23:25;;;;;;;2.80;0.68;;;7.60;99.90;;;;;;5020057;28;20041;-80
2023/05/25 04:25:52;;;;;;;4.30;0.82;;;7.60;99.90;;;;;;4996432;28;20033;-81
2023/05/25 04:28:18;;;;;;;4.55;0.90;;;7.70;99.90;;;;;;4989770;28;20186;-77
2023/05/25 04:31:12;;;;;;;3.55;0.73;;;7.70;99.90;;;;;;5010729;28;20151;-80
2023/05/25 04:33:49;;;;;;;3.35;1.00;;;7.90;99.90;;;;;;4982085;28;20050;-79
2023/05/25 04:36:31;;;;;;;4.72;0.95;;;8.00;99.90;;;;;;5001654;28;20029;-79
2023/05/25 04:39:01;;;;;;;4.25;0.80;;;8.10;99.90;;;;;;5005242;28;20048;-78
2023/05/25 04:41:28;;;;;;;3.13;0.70;;;8.20;99.90;;;;;;4988927;28;20026;-80
2023/05/25 04:43:57;;;;;;;4.57;1.20;;;8.30;99.90;;;;;;4996868;28;20057;-80
2023/05/25 04:46:23;;;;;;;3.50;1.23;;;8.40;99.90;;;;;;4990157;28;20280;-78
2023/05/25 04:48:49;;;;;;;4.07;1.40;;;8.50;99.90;;;;;;5006541;28;20018;-82
2023/05/25 04:51:15;;;;;;;2.00;0.68;;;8.60;99.90;;;;;;5009730;28;20381;-80
2023/05/25 04:53:41;;;;;;;5.45;0.90;;;8.80;99.90;;;;;;5009263;28;20034;-81
2023/05/25 04:56:06;;;;;;;4.28;1.23;;;8.90;99.90;;;;;;5009461;28;20022;-81
2023/05/25 04:58:32;;;;;;;4.03;0.60;;;9.00;99.90;;;;;;5009395;28;20095;-82
2023/05/25 05:00:58;;;;;;;3.08;0.80;;;9.20;99.90;;;;;;5017457;28;20394;-79
2023/05/25 05:03:24;;;;;;;2.45;0.70;;;9.30;99.90;;;;;;5008077;28;20401;-81
2023/05/25 05:05:50;;;;;;;3.25;0.88;;;9.50;99.90;;;;;;4987794;28;20022;-81
2023/05/25 05:08:22;;;;;;;3.03;0.75;;;9.50;99.90;;;;;;4993393;28;20048;-82
2023/05/25 05:10:48;;;;;;;6.20;1.23;;;9.60;99.90;;;;;;5004761;28;20040;-79
2023/05/25 05:13:13;;;;;;;2.42;0.77;;;9.60;99.90;;;;;;5023159;28;20040;-82
2023/05/25 05:15:39;;;;;;;3.15;0.93;;;9.70;99.90;;;;;;5023404;28;20782;-78
2023/05/25 05:18:07;;;;;;;6.78;2.30;;;9.90;99.90;;;;;;5001072;28;20247;-82
2023/05/25 05:20:33;;;;;;;6.65;2.30;;;9.80;99.90;;;;;;5000479;28;20269;-81
2023/05/25 05:22:58;;;;;;;5.78;2.92;;;9.80;99.90;;;;;;4991604;28;20487;-80
2023/05/25 05:25:24;;;;;;;7.43;1.60;;;9.80;99.90;;;;;;4993385;28;20529;-81
2023/05/25 05:27:50;;;;;;;7.35;2.13;;;9.80;99.90;;;;;;5006605;28;20025;-82
2023/05/25 05:30:24;;;;;;;6.15;2.38;;;9.90;99.90;;;;;;4994164;28;20154;-81
2023/05/25 05:32:50;;;;;;;8.35;2.47;;;10.00;99.90;;;;;;4997147;28;20518;-79
2023/05/25 05:35:17;;;;;;;9.73;3.10;;;10.00;99.90;;;;;;4992915;28;20030;-81
2023/05/25 05:37:45;;;;;;;6.55;2.10;;;10.00;99.90;;;;;;5005242;28;20109;-80
2023/05/25 05:40:14;;;;;;;3.97;1.45;;;10.20;99.90;;;;;;5003749;28;20383;-78
2023/05/25 05:42:41;;;;;;;5.65;1.95;;;10.40;99.90;;;;;;4982497;28;20062;-81
2023/05/25 05:45:08;;;;;;;8.23;2.45;;;10.40;99.90;;;;;;5007587;28;20034;-79
2023/05/25 05:47:34;;;;;;;5.15;2.30;;;10.50;99.90;;;;;;4990270;28;20038;-77
2023/05/25 05:50:00;;;;;;;5.55;2.03;;;10.60;99.90;;;;;;4991693;28;20033;-77
2023/05/25 05:52:25;;;;;;;4.55;1.73;;;10.70;99.90;;;;;;5004677;28;20019;-80
2023/05/25 05:54:51;;;;;;;5.72;2.25;;;10.80;99.90;;;;;;5004766;28;20386;-80
2023/05/25 05:57:17;;;;;;;7.45;2.53;;;10.90;99.90;;;;;;5021998;28;20545;-78
2023/05/25 05:59:42;;;;;;;9.65;2.63;;;11.00;99.90;;;;;;5006452;28;20548;-79
2023/05/25 06:02:08;;;;;;;9.60;3.13;;;11.10;99.90;;;;;;5020394;28;20058;-80
2023/05/25 06:04:37;;;;;;;10.05;3.05;;;11.10;99.90;;;;;;4989735;28;20390;-80
2023/05/25 06:07:03;;;;;;;6.40;2.28;;;11.20;99.90;;;;;;4991362;28;20478;-78
2023/05/25 06:09:29;;;;;;;5.28;1.77;;;11.50;99.90;;;;;;4991938;28;20065;-81
2023/05/25 06:11:58;;;;;;;6.57;2.27;;;11.60;99.90;;;;;;4992031;28;20108;-78
2023/05/25 06:14:24;;;;;;;5.95;1.85;;;11.70;99.90;;;;;;4999130;28;20146;-78
2023/05/25 06:16:49;;;;;;;5.20;1.50;;;11.90;99.90;;;;;;4989241;28;20033;-78
2023/05/25 06:19:16;;;;;;;5.82;1.48;;;12.00;99.90;;;;;;4989694;28;20536;-79
2023/05/25 06:21:41;;;;;;;4.38;1.30;;;12.20;99.90;;;;;;4990055;28;20109;-80
2023/05/25 06:24:07;;;;;;;4.22;0.98;;;12.60;99.90;;;;;;5014557;28;20494;-79
2023/05/25 06:26:33;;;;;;;3.05;1.40;;;12.70;99.90;;;;;;5006099;28;20025;-78
2023/05/25 06:28:59;;;;;;;7.28;1.63;;;12.60;99.90;;;;;;4991801;28;20029;-81
2023/05/25 06:31:25;;;;;;;6.05;0.93;;;12.70;99.90;;;;;;5019705;28;20033;-79
2023/05/25 06:33:51;;;;;;;5.57;1.10;;;13.00;99.90;;;;;;5007431;28;20037;-82
2023/05/25 06:36:16;;;;;;;2.97;0.80;;;13.10;99.90;;;;;;4990583;28;20112;-81
2023/05/25 06:38:43;;;;;;;5.68;0.95;;;13.30;99.90;;;;;;5003011;28;20037;-81
2023/05/25 06:41:11;;;;;;;4.03;0.90;;;13.60;99.90;;;;;;4991500;28;20030;-81
2023/05/25 06:43:37;;;;;;;4.63;1.40;;;13.70;99.90;;;;;;5002623;28;20137;-81
2023/05/25 06:46:16;;;;;;;4.10;0.85;;;13.80;99.90;;;;;;4991559;28;20639;-81
2023/05/25 06:48:42;;;;;;;;;;;13.70;99.90;;;;;;4988101;28;20022;-81
2023/05/25 06:51:08;;;;;;;3.90;1.70;;;13.90;99.90;;;;;;5007909;28;19909;-81
2023/05/25 06:53:34;;;;;;;5.93;1.50;;;13.60;99.90;;;;;;4989420;28;20348;-80
2023/05/25 06:55:59;;;;;;;5.35;1.25;;;13.70;99.90;;;;;;5006355;28;20034;-81
2023/05/25 06:58:26;;;;;;;5.38;0.98;;;14.10;99.90;;;;;;4991056;28;20038;-80
2023/05/25 07:00:52;;;;;;;3.85;0.80;;;14.10;99.90;;;;;;5003081;28;20025;-79
2023/05/25 07:03:17;;;;;;;5.20;1.08;;;14.30;99.90;;;;;;5019373;28;20493;-78
2023/05/25 07:05:43;;;;;;;4.70;0.95;;;14.40;99.90;;;;;;5005870;28;20454;-81
2023/05/25 07:08:09;;;;;;;3.72;0.90;;;14.60;99.90;;;;;;5006668;28;20034;-78
2023/05/25 07:10:34;;;;;;;3.08;0.93;;;14.80;99.90;;;;;;5019848;28;20026;-79
2023/05/25 07:13:00;;;;;;;3.33;0.90;;;14.80;99.90;;;;;;4989648;28;20042;-81
2023/05/25 07:15:26;;;;;;;6.28;1.17;;;15.20;99.90;;;;;;4990849;28;20021;-81
2023/05/25 07:17:51;;;;;;;4.10;1.15;;;15.60;99.90;;;;;;4990642;28;20125;-78
2023/05/25 07:20:17;;;;;;;6.82;1.85;;;15.50;99.90;;;;;;5005872;28;20033;-79
2023/05/25 07:22:46;;;;;;;5.93;1.77;;;14.70;99.90;;;;;;5019967;28;20045;-80
2023/05/25 07:25:11;;;;;;;4.07;1.60;;;14.80;99.90;;;;;;5000380;28;20050;-81
2023/05/25 07:27:37;;;;;;;5.55;1.67;;;14.80;99.90;;;;;;5003854;28;20132;-79
2023/05/25 07:30:05;;;;;;;5.38;0.90;;;14.70;99.90;;;;;;5005159;28;20029;-78
2023/05/25 07:32:30;;;;;;;4.90;1.27;;;14.70;99.90;;;;;;5005364;28;20061;-81
2023/05/25 07:34:56;;;;;;;6.80;1.98;;;14.60;99.90;;;;;;4989452;28;20084;-82
2023/05/25 07:37:22;;;;;;;7.68;1.58;;;14.40;99.90;;;;;;5004513;28;20022;-79
2023/05/25 07:39:49;;;;;;;6.38;1.30;;;14.30;99.90;;;;;;4989119;28;20075;-78
2023/05/25 07:42:19;;;;;;;10.35;1.85;;;14.50;99.90;;;;;;5003367;28;20368;-80
2023/05/25 07:44:46;;;;;;;8.65;1.63;;;14.20;99.90;;;;;;5006183;28;20057;-80
2023/05/25 07:47:11;;;;;;;6.70;1.55;;;14.40;99.90;;;;;;5002570;28;20038;-79
2023/05/25 07:49:37;;;;;;;6.78;1.50;;;14.70;99.90;;;;;;5005877;28;20117;-79
2023/05/25 07:52:04;;;;;;;5.35;1.75;;;14.60;99.90;;;;;;5004293;28;20041;-80
2023/05/25 07:54:30;;;;;;;6.53;1.67;;;14.40;99.90;;;;;;4989249;28;20563;-78
2023/05/25 07:56:56;;;;;;;4.55;1.30;;;14.50;99.90;;;;;;5003455;28;20030;-79
2023/05/25 07:59:21;;;;;;;4.10;1.10;;;15.10;99.90;;;;;;5004670;28;20378;-79
2023/05/25 08:01:47;;;;;;;6.32;1.40;;;15.20;99.90;;;;;;5004035;28;20383;-80
2023/05/25 08:04:13;;;;;;;9.02;1.35;;;15.00;99.90;;;;;;5004367;28;20046;-80
2023/05/25 08:06:38;;;;;;;5.68;0.80;;;15.60;99.90;;;;;;5005530;28;20026;-79
2023/05/25 08:09:06;;;;;;;10.88;2.53;;;15.60;99.90;;;;;;4989906;28;20045;-81
2023/05/25 08:11:32;;;;;;;6.72;2.67;;;15.00;99.90;;;;;;5003723;28;20026;-81
2023/05/25 08:13:58;;;;;;;9.38;3.03;;;14.70;99.90;;;;;;4987232;28;20037;-82
2023/05/25 08:16:25;;;;;;;10.05;2.80;;;14.40;99.90;;;;;;4989743;28;20478;-80
2023/05/25 08:18:51;;;;;;;10.73;3.30;;;15.00;99.90;;;;;;5006366;28;20243;-82
2023/05/25 08:21:17;;;;;;;9.68;2.58;;;15.20;99.90;;;;;;5006687;28;20026;-81
2023/05/25 08:23:42;;;;;;;8.07;1.45;;;14.70;99.90;;;;;;5005786;28;20044;-79
2023/05/25 08:26:11;;;;;;;9.52;2.03;;;14.70;99.90;;;;;;5005463;28;20018;-81
2023/05/25 08:28:37;;;;;;;6.70;1.67;;;15.70;99.90;;;;;;5008956;28;20034;-81
2023/05/25 08:31:03;;;;;;;9.38;2.50;;;15.90;99.90;;;;;;4989439;28;20067;-79
2023/05/25 08:33:30;;;;;;;7.80;2.10;;;15.40;99.90;;;;;;5007242;28;20030;-80
2023/05/25 08:35:56;;;;;;;4.75;1.15;;;15.00;99.90;;;;;;5009521;28;20033;-80
2023/05/25 08:38:24;;;;;;;10.70;1.95;;;15.20;99.90;;;;;;4993341;28;20476;-81
2023/05/25 08:41:03;;;;;;;9.80;2.53;;;15.00;99.90;;;;;;5004964;28;20022;-79
2023/05/25 08:43:29;;;;;;;5.63;1.67;;;14.70;99.90;;;;;;5016542;28;20056;-80
2023/05/25 08:46:02;;;;;;;9.80;1.92;;;15.10;99.90;;;;;;5006671;28;20080;-80
2023/05/25 08:48:30;;;;;;;8.48;1.88;;;15.20;99.90;;;;;;4990039;28;20031;-80
2023/05/25 08:51:00;;;;;;;6.22;1.17;;;15.20;99.90;;;;;;4993272;28;20039;-80
2023/05/25 08:53:28;;;;;;;9.23;1.15;;;15.80;99.90;;;;;;5009034;28;20386;-79
2023/05/25 08:55:55;;;;;;;4.50;1.13;;;15.80;99.90;;;;;;4991452;28;20113;-80
2023/05/25 08:58:31;;;;;;;6.15;1.23;;;15.70;99.90;;;;;;5009275;28;20081;-81
2023/05/25 09:01:01;;;;;;;7.03;1.45;;;15.50;99.90;;;;;;5008477;28;20019;-80
2023/05/25 09:03:28;;;;;;;;;;;14.90;99.90;;;;;;4993101;28;20025;-79
2023/05/25 09:05:55;;;;;;;6.85;1.70;;;14.70;99.90;;;;;;5008528;28;19910;-81
2023/05/25 09:08:22;;;;;;;6.10;2.00;;;14.50;99.90;;;;;;4991034;28;20030;-80
2023/05/25 09:10:48;;;;;;;6.80;2.60;;;14.40;99.90;;;;;;5005128;28;20034;-80
2023/05/25 09:13:15;;;;;;;8.52;2.08;;;14.10;99.90;;;;;;4991361;28;20069;-80
2023/05/25 09:15:41;;;;;;;6.30;1.33;;;14.20;99.90;;;;;;5006396;28;20420;-81
2023/05/25 09:18:07;;;;;;;6.45;1.33;;;14.40;99.90;;;;;;5008686;28;20030;-80
2023/05/25 09:20:32;;;;;;;4.97;1.27;;;14.60;99.90;;;;;;5007636;28;20100;-79
2023/05/25 09:22:58;;;;;;;5.75;1.33;;;14.60;99.90;;;;;;5006261;28;20053;-80
2023/05/25 09:25:30;;;;;;;8.60;1.42;;;14.90;99.90;;;;;;4992587;28;20036;-81
2023/05/25 09:27:59;;;;;;;4.80;1.10;;;15.20;99.90;;;;;;5007010;28;20053;-81
2023/05/25 09:30:31;;;;;;;5.47;1.10;;;15.30;99.90;;;;;;4991212;28;20044;-80
2023/05/25 09:33:09;;;;;;;5.55;1.77;;;15.50;99.90;;;;;;5006067;28;20030;-82
2023/05/25 09:35:36;;;;;;;6.53;1.58;;;15.30;99.90;;;;;;5018016;28;20531;-81
2023/05/25 09:38:01;;;;;;;8.07;1.55;;;15.70;99.90;;;;;;4992880;28;20046;-81
2023/05/25 09:40:27;;;;;;;4.22;1.13;;;15.90;99.90;;;;;;5007326;28;20030;-82
2023/05/25 09:42:53;;;;;;;6.05;2.00;;;16.50;99.90;;;;;;4991563;28;20068;-81
2023/05/25 09:45:18;;;;;;;8.23;1.08;;;16.20;99.90;;;;;;5007365;28;20037;-81
2023/05/25 09:47:44;;;;;;;6.38;0.93;;;17.00;99.90;;;;;;5008398;28;20034;-81
2023/05/25 09:50:10;;;;;;;5.65;1.50;;;17.10;99.90;;;;;;4992153;28;20021;-82
2023/05/25 09:52:36;;;;;;;6.45;1.98;;;17.40;99.90;;;;;;5005835;28;20486;-81
2023/05/25 09:55:02;;;;;;;6.50;1.58;;;17.30;99.90;;;;;;5021524;28;20030;-81
2023/05/25 09:57:28;;;;;;;6.10;1.42;;;16.80;99.90;;;;;;4986636;28;20383;-82
2023/05/25 09:59:54;;;;;;;4.03;0.90;;;17.40;99.90;;;;;;4989611;28;20042;-82
2023/05/25 10:02:20;;;;;;;4.15;0.90;;;18.10;99.90;;;;;;5005733;28;20041;-82
2023/05/25 10:04:46;;;;;;;3.63;0.63;;;18.40;99.90;;;;;;4991234;28;20067;-81
2023/05/25 10:07:12;;;;;;;4.57;0.85;;;18.90;99.90;;;;;;4987611;28;20116;-82
2023/05/25 10:09:41;;;;;;;4.35;0.70;;;19.10;99.90;;;;;;4987960;28;20259;-82
2023/05/25 10:12:08;;;;;;;3.78;0.70;;;19.50;99.90;;;;;;5007005;28;20490;-82
2023/05/25 10:14:36;;;;;;;4.90;0.90;;;19.60;99.90;;;;;;5007297;28;20539;-82
2023/05/25 10:17:07;;;;;;;9.50;1.23;;;19.80;99.90;;;;;;5006497;28;20489;-82
2023/05/25 10:19:54;;;;;;;2.90;0.80;;;19.90;99.90;;;;;;5003421;28;20041;-81
2023/05/25 10:22:43;;;;;;;3.70;1.10;;;19.00;99.90;;;;;;5004917;28;20026;-80
2023/05/25 10:25:49;;;;;;;3.10;0.80;;;18.70;99.90;;;;;;5017426;28;20113;-81
2023/05/25 10:28:25;;;;;;;3.78;0.93;;;18.30;99.90;;;;;;4981550;28;20023;-81
2023/05/25 10:30:54;;;;;;;5.82;0.80;;;18.40;99.90;;;;;;4965375;28;20030;-82
2023/05/25 10:33:20;;;;;;;3.85;0.65;;;18.80;99.90;;;;;;4970990;28;20034;-81
2023/05/25 10:35:48;;;;;;;3.50;0.88;;;18.80;99.90;;;;;;4969905;28;20084;-81
2023/05/25 10:38:15;;;;;;;4.53;0.90;;;18.00;99.90;;;;;;4984129;28;20042;-81
2023/05/25 10:40:46;;;;;;;5.32;0.90;;;17.70;99.90;;;;;;4970117;28;20129;-81
2023/05/25 10:43:14;;;;;;;4.40;1.00;;;17.30;99.90;;;;;;4973473;28;20055;-81
2023/05/25 10:45:41;;;;;;;4.10;0.63;;;17.50;99.90;;;;;;5005725;28;20030;-81
2023/05/25 10:48:06;;;;;;;3.40;0.50;;;17.60;99.90;;;;;;5005364;28;20451;-81
2023/05/25 10:50:35;;;;;;;6.05;1.10;;;17.90;99.90;;;;;;5003106;28;20149;-81
2023/05/25 10:53:05;;;;;;;4.13;0.98;;;17.60;99.90;;;;;;4990285;28;20060;-81
2023/05/25 10:55:47;;;;;;;4.10;0.90;;;17.30;99.90;;;;;;5005487;28;20495;-81
2023/05/25 10:58:15;;;;;;;2.90;0.80;;;17.00;99.90;;;;;;5020527;28;20041;-81
2023/05/25 11:00:56;;;;;;;3.75;0.73;;;17.40;99.90;;;;;;5015853;28;20029;-82
2023/05/25 11:03:21;;;;;;;4.03;0.85;;;17.40;99.90;;;;;;5007238;28;20407;-81
2023/05/25 11:05:49;;;;;;;3.38;0.80;;;17.90;99.90;;;;;;5002444;28;20026;-81
2023/05/25 11:08:16;;;;;;;3.35;0.70;;;17.70;99.90;;;;;;4997601;28;20123;-80
2023/05/25 11:10:49;;;;;;;3.40;1.08;;;17.80;99.90;;;;;;5018645;28;20030;-81
2023/05/25 11:13:21;;;;;;;3.13;0.50;;;17.40;99.90;;;;;;5020225;28;20026;-81
2023/05/25 11:16:06;;;;;;;4.40;0.98;;;17.40;99.90;;;;;;4981730;28;20052;-81
2023/05/25 11:18:42;;;;;;;4.75;1.05;;;17.10;99.90;;;;;;4986675;28;20440;-81
2023/05/25 11:21:13;;;;;;;4.10;0.70;;;17.10;99.90;;;;;;5020456;28;20022;-81
2023/05/25 11:23:54;;;;;;;2.85;0.70;;;17.50;99.90;;;;;;4987403;28;20510;-81
2023/05/25 11:26:22;;;;;;;2.08;0.50;;;17.80;99.90;;;;;;5006531;28;20068;-82
2023/05/25 11:28:49;;;;;;;3.67;0.70;;;18.20;99.90;;;;;;5005402;28;20026;-81
2023/05/25 11:31:16;;;;;;;4.90;0.77;;;18.10;99.90;;;;;;5018593;28;20421;-82
2023/05/25 11:33:43;;;;;;;6.15;1.05;;;18.00;99.90;;;;;;5020757;28;20033;-81
2023/05/25 11:36:10;;;;;;;4.82;0.70;;;17.80;99.90;;;;;;4990449;28;20035;-82
2023/05/25 11:38:44;;;;;;;3.80;0.80;;;17.80;99.90;;;;;;5005249;28;20037;-81
2023/05/25 11:41:17;;;;;;;4.28;0.60;;;18.10;99.90;;;;;;5003183;28;20022;-82
2023/05/25 11:43:50;;;;;;;4.20;0.60;;;18.00;99.90;;;;;;4989015;28;20060;-82
2023/05/25 11:46:20;;;;;;;3.20;0.63;;;17.90;99.90;;;;;;5004716;28;20341;-82
2023/05/25 11:48:53;;;;;;;;;;;18.20;99.90;;;;;;5003763;28;20077;-81
2023/05/25 11:51:27;;;;;;;2.55;0.50;;;18.70;99.90;;;;;;5003013;28;19917;-81
2023/05/25 11:53:53;;;;;;;2.20;0.45;;;18.50;99.90;;;;;;5004895;28;20143;-82
2023/05/25 11:56:21;;;;;;;2.20;0.50;;;18.80;99.90;;;;;;5007577;28;20395;-81
2023/05/25 11:58:48;;;;;;;3.25;0.50;;;18.60;99.90;;;;;;5006598;28;20172;-81
2023/05/25 12:01:19;;;;;;;3.13;0.50;;;18.50;99.90;;;;;;5020848;28;20360;-81
2023/05/25 12:03:51;;;;;;;1.88;0.40;;;18.30;99.90;;;;;;5006624;28;20525;-80
2023/05/25 12:06:32;;;;;;;5.18;0.60;;;18.50;99.90;;;;;;5010281;28;20029;-82
2023/05/25 12:09:08;;;;;;;2.53;0.57;;;18.10;99.90;;;;;;5008657;28;20037;-81
2023/05/25 12:11:39;;;;;;;3.63;0.50;;;18.30;99.90;;;;;;5009600;28;20030;-81
2023/05/25 12:14:06;;;;;;;2.47;0.47;;;18.20;99.90;;;;;;4992507;28;20025;-80
2023/05/25 12:16:37;;;;;;;5.30;0.60;;;18.70;99.90;;;;;;5017632;28;20088;-81
2023/05/25 12:19:03;;;;;;;4.32;0.60;;;19.40;99.90;;;;;;5007503;28;20394;-81
2023/05/25 12:21:30;;;;;;;3.63;0.60;;;19.70;99.90;;;;;;5008777;28;20037;-81
2023/05/25 12:23:56;;;;;;;2.58;0.45;;;20.00;99.90;;;;;;5016712;28;20022;-81
2023/05/25 12:26:23;;;;;;;4.05;0.75;;;19.50;99.90;;;;;;5022387;28;20038;-81
2023/05/25 12:29:17;;;;;;;4.53;0.60;;;18.80;99.90;;;;;;5020326;28;20030;-81
2023/05/25 12:31:43;;;;;;;4.13;0.70;;;18.70;99.90;;;;;;4989687;28;20136;-80
2023/05/25 12:34:17;;;;;;;3.45;0.47;;;18.60;99.90;;;;;;4993529;28;20490;-81
2023/05/25 12:36:51;;;;;;;5.38;0.90;;;18.80;99.90;;;;;;4990606;28;20030;-80
2023/05/25 12:39:38;;;;;;;2.88;0.52;;;18.30;99.90;;;;;;5009582;28;20041;-81
2023/05/25 12:42:05;;;;;;;4.43;0.60;;;18.40;99.90;;;;;;5006451;28;20228;-81
2023/05/25 12:44:36;;;;;;;2.35;0.50;;;19.20;99.90;;;;;;4992588;28;20057;-81
2023/05/25 12:47:18;;;;;;;4.07;0.85;;;19.90;99.90;;;;;;5008851;28;20116;-82
2023/05/25 12:49:47;;;;;;;2.75;0.50;;;19.40;99.90;;;;;;4986233;28;20029;-82
2023/05/25 12:52:59;;;;;;;1.92;0.43;;;19.80;99.90;;;;;;5007655;28;20119;-81
2023/05/25 12:55:29;;;;;;;4.03;0.70;;;19.60;99.90;;;;;;4973006;28;20081;-81
2023/05/25 12:58:01;;;;;;;6.38;0.60;;;19.60;99.90;;;;;;4971912;28;20569;-81
2023/05/25 13:00:37;;;;;;;5.65;0.73;;;19.70;99.90;;;;;;4967939;28;20077;-81